Quemado, NM (87829)

11:19 AM MDT on May 24, 2015 (GMT -0600)
Cimarron Ranch, Red Hill | | Change Station
CLOSE
Current Station
Personal Weather Station
Location: Quemado, NM
Elevation: 7225 ft
Nearby Weather Stations

Elev 7225 ft 34.24 °N, 108.87 °W | Updated 13 minutes ago

Partly Cloudy
Partly Cloudy
54.2 °F
Feels Like 54.2 °F
N
9.0
Wind Variable Wind from West
Gusts 15.0 mph

Today
High -- | Low -- °F
--% Chance of Precip.
Yesterday
High -- | Low -- °F
Precip. -- in
6:07 AM 8:16 PM
Waxing Crescent, 40% visible
Pressure 29.81 in
Visibility 10.0 miles
Clouds Few 6500 ft
Dew Point 26 °F
Humidity 34%
Rainfall 0.00 in
Snow Depth Not available.
UV 7.7 out of 12
Pollen 4.60 out of 12
Air Quality Not available.
Flu Activity Local Activity
METAR KSJN 241654Z AUTO 25011G20KT 10SM FEW065 16/M02 A3000 RMK AO2 SLP095 T01611017

More Conditions Fewer Conditions

Pressure 29.81 in
Visibility 10.0 miles
Clouds Few 6500 ft
Dew Point 26 °F
Humidity 34%
Rainfall 0.00 in
Snow Depth Not available.
UV 7.7 out of 12
Pollen 4.60 out of 12
Air Quality Not available.
Flu Activity Local Activity
METAR KSJN 241654Z AUTO 25011G20KT 10SM FEW065 16/M02 A3000 RMK AO2 SLP095 T01611017

More Conditions Fewer Conditions

10-Day Weather Forecast

Almanac

Astronomy

May. 24, 2015 Rise Set
Actual Time
Civil Twilight
Nautical Twilight
Astronomical Twilight
Moon
Length of Visible Light
Length of Day
Tomorrow will be .
, % of the Moon is Illuminated

Today's Extremes

State Highs State Lows

Community

WunderPhotos

Upload Photos

1,823,799 photos uploaded!

WunderBlogs® & News

Nearby

Air Quality

  Air Quality AQ Index Pollutant
Not available.

Snow Depth

Station Depth Elevation

Earthquake Activity

City Distance Mag. Time & Date
Minimum magnitude displayed is 2.5.

Coastal Water Temperatures

Place Temperature

Stations

Nearby Weather Stations

Station Location Temp. Windchill Dew Point Humidity Wind Precip. Elev Updated Type